createdAt,value
2017-06-12T00:00:03.438Z,99.3
2017-06-12T00:01:15.659Z,99.49
2017-06-12T00:02:28.156Z,99.3
2017-06-12T00:03:40.368Z,99.11
2017-06-12T00:04:52.889Z,99.78
2017-06-12T00:06:05.410Z,99.49
2017-06-12T00:07:17.647Z,99.59
2017-06-12T00:08:29.906Z,99.78
2017-06-12T00:09:42.112Z,99.88
2017-06-12T00:10:54.632Z,99.78
2017-06-12T00:12:07.177Z,99.49
2017-06-12T00:13:19.393Z,99.98
2017-06-12T00:14:31.917Z,99.98
2017-06-12T00:15:44.139Z,99.99
2017-06-12T00:16:56.409Z,99.88
2017-06-12T00:18:08.927Z,99.98
2017-06-12T00:19:21.415Z,99.88
2017-06-12T00:20:33.965Z,99.68
2017-06-12T00:21:46.493Z,99.88
2017-06-12T00:22:59.039Z,99.98
2017-06-12T00:24:11.300Z,99.68
2017-06-12T00:25:23.828Z,99.68
2017-06-12T00:26:36.373Z,99.98
2017-06-12T00:27:48.891Z,99.88
2017-06-12T00:29:01.136Z,99.68
2017-06-12T00:30:13.759Z,99.98
2017-06-12T00:31:26.283Z,99.88
2017-06-12T00:32:38.798Z,99.78
2017-06-12T00:33:51.027Z,99.98
2017-06-12T00:35:03.587Z,99.88
2017-06-12T00:36:16.099Z,99.98
2017-06-12T00:37:28.637Z,99.99
2017-06-12T00:38:41.177Z,99.99
2017-06-12T00:39:53.699Z,99.99
2017-06-12T00:41:06.046Z,99.99
2017-06-12T00:42:18.570Z,99.99
2017-06-12T00:43:31.083Z,99.99
2017-06-12T00:44:43.640Z,99.99
2017-06-12T00:45:55.859Z,99.99
2017-06-12T00:47:08.672Z,99.99
2017-06-12T00:48:21.196Z,99.99
2017-06-12T00:49:33.763Z,99.99
2017-06-12T00:50:46.270Z,99.99
2017-06-12T00:51:58.797Z,99.99
2017-06-12T00:53:10.738Z,99.99
2017-06-12T00:54:23.283Z,99.99
2017-06-12T00:55:35.806Z,99.99
2017-06-12T00:56:48.345Z,99.99
2017-06-12T00:58:00.573Z,99.99
2017-06-12T00:59:13.116Z,99.99
2017-06-12T01:00:25.650Z,99.99
2017-06-12T01:01:37.878Z,99.99
2017-06-12T01:02:50.451Z,99.99
2017-06-12T01:04:02.697Z,99.99
2017-06-12T01:05:14.947Z,99.99
2017-06-12T01:06:27.489Z,99.99
2017-06-12T01:07:40.013Z,99.99
2017-06-12T01:08:52.252Z,99.99
2017-06-12T01:10:04.780Z,99.99
2017-06-12T01:11:17.293Z,99.99
2017-06-12T01:12:29.839Z,99.99
2017-06-12T01:13:42.082Z,99.99
2017-06-12T01:14:54.612Z,99.99
2017-06-12T01:16:06.831Z,99.99
2017-06-12T01:17:19.370Z,99.99
2017-06-12T01:18:31.865Z,99.99
2017-06-12T01:19:44.697Z,99.99
2017-06-12T01:20:57.219Z,99.99
2017-06-12T01:22:09.740Z,99.99
2017-06-12T01:23:22.256Z,99.99
2017-06-12T01:24:34.778Z,99.99
2017-06-12T01:25:47.039Z,99.99
2017-06-12T01:26:59.265Z,99.99
2017-06-12T01:28:11.807Z,99.99
2017-06-12T01:29:24.011Z,99.99
2017-06-12T01:30:36.533Z,99.99
2017-06-12T01:31:49.054Z,99.99
2017-06-12T01:33:01.570Z,99.99
2017-06-12T01:34:14.114Z,99.99
2017-06-12T01:35:26.362Z,99.99
2017-06-12T01:36:38.914Z,99.99
2017-06-12T01:37:51.125Z,99.99
2017-06-12T01:39:03.681Z,99.99
2017-06-12T01:40:16.249Z,99.99
2017-06-12T01:41:28.792Z,99.99
2017-06-12T01:42:41.308Z,99.99
2017-06-12T01:43:53.512Z,99.99
2017-06-12T01:45:06.051Z,99.99
2017-06-12T01:46:18.862Z,99.99
2017-06-12T01:47:31.392Z,99.99
2017-06-12T01:48:43.913Z,99.99
2017-06-12T01:49:56.462Z,99.99
2017-06-12T01:51:08.708Z,99.99
2017-06-12T01:52:21.236Z,99.99
2017-06-12T01:53:33.804Z,99.99
2017-06-12T01:54:46.329Z,99.99
2017-06-12T01:55:58.850Z,99.99
2017-06-12T01:57:11.492Z,99.99
2017-06-12T01:58:24.013Z,99.99
2017-06-12T01:59:36.512Z,99.99
2017-06-12T02:00:49.088Z,99.99
2017-06-12T02:02:01.325Z,99.99
2017-06-12T02:03:13.889Z,99.99
2017-06-12T02:04:26.413Z,99.99
2017-06-12T02:05:38.941Z,99.99
2017-06-12T02:06:51.462Z,99.99
2017-06-12T02:08:04.284Z,99.99
2017-06-12T02:09:16.830Z,99.99
2017-06-12T02:10:29.425Z,99.99
2017-06-12T02:11:41.665Z,99.99
2017-06-12T02:12:54.207Z,99.99
2017-06-12T02:14:06.754Z,99.99
2017-06-12T02:15:18.680Z,99.99
2017-06-12T02:16:31.226Z,99.99
2017-06-12T02:17:43.766Z,99.99
2017-06-12T02:18:56.278Z,99.99
2017-06-12T02:20:08.832Z,99.99
2017-06-12T02:21:21.363Z,99.99
2017-06-12T02:22:33.907Z,99.99
2017-06-12T02:23:46.453Z,99.99
2017-06-12T02:24:58.979Z,99.99
2017-06-12T02:26:11.494Z,99.99
2017-06-12T02:27:24.032Z,99.99
2017-06-12T02:28:36.553Z,99.99
2017-06-12T02:29:49.053Z,99.99
2017-06-12T02:31:01.581Z,99.99
2017-06-12T02:32:14.116Z,99.99
2017-06-12T02:33:26.648Z,99.99
2017-06-12T02:34:39.218Z,99.99
2017-06-12T02:35:51.764Z,99.99
2017-06-12T02:37:04.006Z,99.99
2017-06-12T02:38:16.553Z,99.99
2017-06-12T02:39:29.099Z,99.99
2017-06-12T02:40:41.448Z,99.99
2017-06-12T02:41:53.992Z,99.99
2017-06-12T02:43:06.511Z,99.99
2017-06-12T02:44:19.013Z,99.99
2017-06-12T02:45:31.558Z,99.99
2017-06-12T02:46:44.100Z,99.99
2017-06-12T02:47:56.620Z,99.99
2017-06-12T02:49:08.566Z,99.99
2017-06-12T02:50:21.080Z,99.99
2017-06-12T02:51:33.611Z,99.99
2017-06-12T02:52:46.170Z,99.99
2017-06-12T02:53:58.403Z,99.99
2017-06-12T02:55:10.931Z,99.99
2017-06-12T02:56:23.447Z,99.99
2017-06-12T02:57:35.983Z,99.99
2017-06-12T02:58:48.533Z,99.99
2017-06-12T03:00:01.050Z,99.99
2017-06-12T03:01:13.296Z,99.99
2017-06-12T03:02:25.516Z,99.99
2017-06-12T03:03:38.046Z,99.99
2017-06-12T03:04:50.606Z,99.99
2017-06-12T03:06:02.839Z,99.99
2017-06-12T03:07:15.055Z,99.99
2017-06-12T03:08:27.582Z,99.99
2017-06-12T03:09:39.490Z,99.99
2017-06-12T03:10:51.709Z,99.99
2017-06-12T03:12:04.231Z,99.99
2017-06-12T03:13:16.877Z,99.99
2017-06-12T03:14:29.101Z,99.99
2017-06-12T03:15:41.648Z,99.99
2017-06-12T03:16:54.197Z,99.99
2017-06-12T03:18:06.719Z,99.99
2017-06-12T03:19:18.969Z,99.99
2017-06-12T03:20:31.514Z,99.99
2017-06-12T03:21:44.051Z,99.99
2017-06-12T03:22:56.273Z,99.99
2017-06-12T03:24:08.889Z,99.99
2017-06-12T03:25:20.820Z,99.99
2017-06-12T03:26:33.336Z,99.99
2017-06-12T03:27:45.885Z,99.99
2017-06-12T03:28:58.431Z,99.99
2017-06-12T03:30:10.352Z,99.99
2017-06-12T03:31:22.566Z,99.99
2017-06-12T03:32:35.123Z,99.99
2017-06-12T03:33:47.686Z,99.99
2017-06-12T03:35:00.235Z,99.99
2017-06-12T03:36:12.186Z,99.99
2017-06-12T03:37:24.703Z,99.99
2017-06-12T03:38:36.949Z,99.99
2017-06-12T03:39:49.463Z,99.99
2017-06-12T03:41:01.994Z,99.99
2017-06-12T03:42:14.237Z,99.99
2017-06-12T03:43:26.450Z,99.99
2017-06-12T03:44:38.682Z,99.99
2017-06-12T03:45:51.203Z,99.99
2017-06-12T03:47:03.449Z,99.99
2017-06-12T03:48:15.708Z,99.99
2017-06-12T03:49:27.904Z,99.99
2017-06-12T03:50:40.425Z,99.99
2017-06-12T03:51:52.649Z,99.99
2017-06-12T03:53:05.229Z,99.99
2017-06-12T03:54:17.751Z,99.99
2017-06-12T03:55:30.295Z,99.99
2017-06-12T03:56:42.921Z,99.99
2017-06-12T03:57:55.458Z,99.99
2017-06-12T03:59:07.961Z,99.99
2017-06-12T04:00:20.495Z,99.99
2017-06-12T04:01:33.021Z,99.99
2017-06-12T04:02:45.559Z,99.99
2017-06-12T04:03:58.089Z,99.99
2017-06-12T04:05:10.630Z,99.99
2017-06-12T04:06:23.176Z,99.99
2017-06-12T04:07:35.402Z,99.99
2017-06-12T04:08:47.931Z,99.99
2017-06-12T04:10:00.460Z,99.99
2017-06-12T04:11:12.980Z,99.99
2017-06-12T04:12:25.213Z,99.99
2017-06-12T04:13:37.731Z,99.99
2017-06-12T04:14:50.271Z,99.99
2017-06-12T04:16:02.803Z,99.99
2017-06-12T04:17:15.035Z,99.99
2017-06-12T04:18:27.548Z,99.99
2017-06-12T04:19:40.084Z,99.99
2017-06-12T04:20:52.630Z,99.99
2017-06-12T04:22:05.151Z,99.99
2017-06-12T04:23:17.372Z,99.99
2017-06-12T04:24:29.896Z,99.99
2017-06-12T04:25:42.431Z,99.99
2017-06-12T04:26:54.927Z,99.99
2017-06-12T04:28:07.431Z,99.99
2017-06-12T04:29:19.974Z,99.99
2017-06-12T04:30:32.526Z,99.99
2017-06-12T04:31:45.069Z,99.99
2017-06-12T04:32:57.593Z,99.99
2017-06-12T04:34:10.107Z,99.99
2017-06-12T04:35:22.356Z,99.99
2017-06-12T04:36:34.873Z,99.99
2017-06-12T04:37:47.418Z,99.99
2017-06-12T04:38:59.998Z,99.99
2017-06-12T04:40:12.632Z,99.99
2017-06-12T04:41:25.129Z,99.99
2017-06-12T04:42:37.657Z,99.99
2017-06-12T04:43:50.162Z,99.99
2017-06-12T04:45:02.419Z,99.99
2017-06-12T04:46:14.965Z,99.99
2017-06-12T04:47:27.200Z,99.99
2017-06-12T04:48:39.758Z,99.99
2017-06-12T04:49:52.299Z,99.99
2017-06-12T04:51:04.503Z,99.59
2017-06-12T04:52:17.024Z,99.11
2017-06-12T04:53:29.564Z,98.91
2017-06-12T04:54:42.112Z,99.11
2017-06-12T04:55:54.617Z,98.44
2017-06-12T04:57:07.150Z,98.53
2017-06-12T04:58:19.671Z,98.63
2017-06-12T04:59:31.902Z,98.63
2017-06-12T05:00:44.430Z,98.24
2017-06-12T05:01:56.966Z,98.24
2017-06-12T05:03:09.479Z,98.63
2017-06-12T05:04:22.033Z,98.72
2017-06-12T05:05:34.557Z,98.68
2017-06-12T05:06:47.110Z,98.39
2017-06-12T05:07:59.645Z,98.58
2017-06-12T05:09:12.187Z,98.87
2017-06-12T05:10:24.713Z,98.19
2017-06-12T05:11:36.959Z,98.29
2017-06-12T05:12:48.898Z,98.58
2017-06-12T05:14:01.126Z,97.91
2017-06-12T05:15:13.376Z,98.19
2017-06-12T05:16:25.913Z,97.81
2017-06-12T05:17:38.184Z,98.1
2017-06-12T05:18:50.455Z,98.39
2017-06-12T05:20:02.734Z,98.19
2017-06-12T05:21:14.994Z,97.71
2017-06-12T05:22:27.518Z,97.81
2017-06-12T05:23:39.843Z,97.76
2017-06-12T05:24:52.084Z,97.52
2017-06-12T05:26:04.027Z,97.33
2017-06-12T05:27:16.572Z,97.47
2017-06-12T05:28:28.804Z,97.96
2017-06-12T05:29:41.348Z,97.96
2017-06-12T05:30:53.589Z,98.05
2017-06-12T05:32:06.140Z,97.38
2017-06-12T05:33:18.660Z,97.47
2017-06-12T05:34:31.181Z,96.61
2017-06-12T05:35:43.727Z,96.61
2017-06-12T05:36:55.951Z,96.42
2017-06-12T05:38:08.173Z,96.61
2017-06-12T05:39:20.407Z,96.66
2017-06-12T05:40:32.957Z,96.17
2017-06-12T05:41:45.512Z,95.98
2017-06-12T05:42:58.056Z,95.5
2017-06-12T05:44:10.589Z,96.08
2017-06-12T05:45:22.811Z,95.31
2017-06-12T05:46:35.368Z,95.4
2017-06-12T05:47:47.910Z,95.6
2017-06-12T05:49:00.150Z,94.82
2017-06-12T05:50:12.698Z,95.12
2017-06-12T05:51:25.242Z,95.31
2017-06-12T05:52:37.449Z,95.31
2017-06-12T05:53:49.990Z,95.12
2017-06-12T05:55:01.915Z,95.31
2017-06-12T05:56:14.150Z,94.92
2017-06-12T05:57:26.653Z,95.21
2017-06-12T05:58:39.195Z,95.02
2017-06-12T05:59:51.442Z,95.12
2017-06-12T06:01:03.662Z,95.31
2017-06-12T06:02:16.215Z,94.34
2017-06-12T06:03:28.735Z,94.64
2017-06-12T06:04:41.274Z,95.12
2017-06-12T06:05:53.228Z,94.34
2017-06-12T06:07:05.741Z,94.64
2017-06-12T06:08:18.334Z,94.34
2017-06-12T06:09:30.868Z,94.54
2017-06-12T06:10:43.383Z,93.77
2017-06-12T06:11:55.957Z,93.87
2017-06-12T06:13:08.206Z,93.67
2017-06-12T06:14:20.718Z,93.87
2017-06-12T06:15:33.287Z,94.2
2017-06-12T06:16:45.822Z,93.14
2017-06-12T06:17:58.434Z,94.01
2017-06-12T06:19:10.646Z,93.04
2017-06-12T06:20:23.197Z,93.14
2017-06-12T06:21:35.422Z,93.33
2017-06-12T06:22:47.942Z,93.62
2017-06-12T06:24:00.147Z,93.86
2017-06-12T06:25:12.684Z,92.8
2017-06-12T06:26:25.230Z,93.09
2017-06-12T06:27:37.751Z,92.61
2017-06-12T06:28:50.304Z,93.86
2017-06-12T06:30:02.843Z,91.93
2017-06-12T06:31:15.081Z,91.88
2017-06-12T06:32:27.305Z,92.17
2017-06-12T06:33:39.840Z,90.53
2017-06-12T06:34:52.070Z,90.15
2017-06-12T06:36:04.300Z,91.11
2017-06-12T06:37:16.822Z,89.76
2017-06-12T06:38:29.085Z,88.99
2017-06-12T06:39:41.638Z,89.09
2017-06-12T06:40:54.202Z,89.28
2017-06-12T06:42:06.722Z,88.89
2017-06-12T06:43:19.268Z,90.72
2017-06-12T06:44:31.804Z,89.76
2017-06-12T06:45:44.360Z,89.86
2017-06-12T06:46:56.014Z,90.09
2017-06-12T06:48:08.260Z,91.54
2017-06-12T06:49:20.531Z,88.93
2017-06-12T06:50:33.069Z,89.85
2017-06-12T06:51:45.612Z,88.79
2017-06-12T06:52:58.115Z,89.07
2017-06-12T06:54:10.654Z,88.98
2017-06-12T06:55:23.217Z,89.37
2017-06-12T06:56:35.727Z,88.79
2017-06-12T06:57:48.255Z,88.93
2017-06-12T06:59:00.497Z,87.48
2017-06-12T07:00:12.737Z,87.67
2017-06-12T07:01:25.279Z,87.58
2017-06-12T07:02:37.824Z,88.1
2017-06-12T07:03:50.356Z,87.62
2017-06-12T07:05:02.903Z,87.04
2017-06-12T07:06:15.462Z,85.59
2017-06-12T07:07:27.971Z,85.69
2017-06-12T07:08:40.515Z,86.27
2017-06-12T07:09:53.075Z,87.23
2017-06-12T07:11:05.297Z,86.85
2017-06-12T07:12:17.853Z,87.85
2017-06-12T07:13:30.376Z,87.18
2017-06-12T07:14:42.923Z,83.45
2017-06-12T07:15:55.191Z,83.94
2017-06-12T07:17:07.733Z,82.72
2017-06-12T07:18:19.996Z,83.78
2017-06-12T07:19:32.203Z,82.91
2017-06-12T07:20:44.442Z,83.11
2017-06-12T07:21:56.685Z,80.82
2017-06-12T07:23:09.192Z,81.7
2017-06-12T07:24:21.733Z,80.77
2017-06-12T07:25:34.280Z,79.02
2017-06-12T07:26:46.829Z,77.9
2017-06-12T07:27:59.076Z,77.7
2017-06-12T07:29:11.637Z,77.57
2017-06-12T07:30:23.897Z,77.57
2017-06-12T07:31:36.462Z,77.76
2017-06-12T07:32:48.714Z,78.25
2017-06-12T07:34:01.256Z,77.42
2017-06-12T07:35:13.219Z,77.12
2017-06-12T07:36:25.785Z,78.38
2017-06-12T07:37:38.317Z,76.25
2017-06-12T07:38:50.876Z,76.1
2017-06-12T07:40:03.408Z,76.78
2017-06-12T07:41:15.633Z,76.62
2017-06-12T07:42:28.193Z,74.39
2017-06-12T07:43:40.742Z,73.26
2017-06-12T07:44:53.305Z,74.71
2017-06-12T07:46:05.536Z,72.97
2017-06-12T07:47:18.110Z,72.03
2017-06-12T07:48:30.658Z,72.13
2017-06-12T07:49:43.219Z,69.38
2017-06-12T07:50:55.744Z,71.16
2017-06-12T07:52:07.670Z,71.16
2017-06-12T07:53:20.234Z,68.93
2017-06-12T07:54:32.785Z,66.53
2017-06-12T07:55:45.323Z,66.69
2017-06-12T07:56:57.266Z,67.41
2017-06-12T07:58:09.511Z,67.47
2017-06-12T07:59:21.745Z,68.25
2017-06-12T08:00:33.982Z,66.79
2017-06-12T08:01:46.551Z,67.02
2017-06-12T08:02:59.107Z,67.96
2017-06-12T08:04:11.641Z,68.48
2017-06-12T08:05:24.174Z,66.53
2017-06-12T08:06:36.410Z,64.4
2017-06-12T08:07:48.662Z,63.55
2017-06-12T08:09:01.208Z,62
2017-06-12T08:10:13.771Z,63.17
2017-06-12T08:11:26.045Z,64.23
2017-06-12T08:12:38.615Z,62.71
2017-06-12T08:13:50.841Z,60.08
2017-06-12T08:15:03.379Z,59.99
2017-06-12T08:16:15.636Z,59.21
2017-06-12T08:17:28.200Z,58.65
2017-06-12T08:18:40.745Z,59.05
2017-06-12T08:19:53.288Z,56.22
2017-06-12T08:21:05.817Z,57.22
2017-06-12T08:22:18.359Z,57.61
2017-06-12T08:23:30.929Z,56.74
2017-06-12T08:24:43.479Z,56.15
2017-06-12T08:25:56.072Z,54.69
2017-06-12T08:27:08.338Z,54.89
2017-06-12T08:28:20.592Z,55.76
2017-06-12T08:29:32.531Z,54.01
2017-06-12T08:30:44.776Z,53.81
2017-06-12T08:31:57.311Z,54.6
2017-06-12T08:33:09.571Z,53.52
2017-06-12T08:34:22.126Z,53.11
2017-06-12T08:35:34.693Z,52.92
2017-06-12T08:36:47.239Z,53.67
2017-06-12T08:37:59.762Z,53.86
2017-06-12T08:39:12.122Z,54.8
2017-06-12T08:40:24.373Z,54.93
2017-06-12T08:41:36.944Z,54.74
2017-06-12T08:42:49.192Z,53.96
2017-06-12T08:44:01.739Z,54.83
2017-06-12T08:45:13.992Z,53.86
2017-06-12T08:46:26.505Z,54.35
2017-06-12T08:47:38.773Z,55.22
2017-06-12T08:48:50.716Z,54.05
2017-06-12T08:50:03.265Z,52.69
2017-06-12T08:51:15.813Z,52.43
2017-06-12T08:52:28.053Z,51.45
2017-06-12T08:53:40.609Z,52.43
2017-06-12T08:54:52.583Z,52.16
2017-06-12T08:56:04.824Z,50.8
2017-06-12T08:57:17.073Z,49.66
2017-06-12T08:58:29.607Z,48.36
2017-06-12T08:59:41.854Z,48.75
2017-06-12T09:00:54.111Z,49.56
2017-06-12T09:02:06.376Z,49.56
2017-06-12T09:03:18.924Z,51.02
2017-06-12T09:04:31.444Z,48.78
2017-06-12T09:05:44.016Z,48.68
2017-06-12T09:06:56.267Z,49.46
2017-06-12T09:08:08.808Z,48.97
2017-06-12T09:09:21.349Z,48.58
2017-06-12T09:10:33.895Z,49.56
2017-06-12T09:11:46.446Z,48.68
2017-06-12T09:12:58.991Z,48.32
2017-06-12T09:14:11.565Z,48.58
2017-06-12T09:15:24.128Z,48.78
2017-06-12T09:16:36.407Z,48.88
2017-06-12T09:17:48.975Z,48
2017-06-12T09:19:01.524Z,48
2017-06-12T09:20:14.113Z,47.61
2017-06-12T09:21:26.380Z,46.64
2017-06-12T09:22:38.936Z,46.25
2017-06-12T09:23:51.158Z,46.27
2017-06-12T09:25:03.124Z,46.37
2017-06-12T09:26:15.091Z,46.49
2017-06-12T09:27:27.034Z,44.83
2017-06-12T09:28:39.269Z,43.78
2017-06-12T09:29:51.785Z,43.99
2017-06-12T09:31:04.351Z,44.48
2017-06-12T09:32:16.882Z,42.94
2017-06-12T09:33:29.476Z,43.24
2017-06-12T09:34:41.749Z,43.65
2017-06-12T09:35:54.338Z,43.65
2017-06-12T09:37:06.884Z,43.26
2017-06-12T09:38:19.430Z,42.21
2017-06-12T09:39:31.697Z,41.33
2017-06-12T09:40:44.272Z,42.21
2017-06-12T09:41:56.848Z,42.5
2017-06-12T09:43:09.082Z,42.89
2017-06-12T09:44:21.610Z,42.4
2017-06-12T09:45:34.174Z,41.52
2017-06-12T09:46:46.746Z,42.3
2017-06-12T09:47:59.023Z,42.01
2017-06-12T09:49:11.299Z,42.11
2017-06-12T09:50:23.591Z,42.58
2017-06-12T09:51:35.864Z,42.58
2017-06-12T09:52:48.156Z,41.58
2017-06-12T09:54:00.704Z,42.48
2017-06-12T09:55:12.954Z,42.19
2017-06-12T09:56:24.291Z,42.09
2017-06-12T09:57:36.860Z,41.21
2017-06-12T09:58:48.510Z,40.55
2017-06-12T10:00:01.035Z,40.55
2017-06-12T10:01:13.307Z,40.55
2017-06-12T10:02:25.576Z,40.08
2017-06-12T10:03:38.149Z,39.59
2017-06-12T10:04:50.723Z,40
2017-06-12T10:06:03.279Z,40.19
2017-06-12T10:07:14.953Z,38.35
2017-06-12T10:08:27.507Z,38.06
2017-06-12T10:09:39.770Z,38.18
2017-06-12T10:10:52.049Z,38.18
2017-06-12T10:12:04.291Z,37.19
2017-06-12T10:13:16.854Z,36.33
2017-06-12T10:14:29.104Z,37.02
2017-06-12T10:15:41.654Z,37.39
2017-06-12T10:16:54.199Z,36.82
2017-06-12T10:18:06.763Z,36.24
2017-06-12T10:19:19.294Z,36.14
2017-06-12T10:20:31.865Z,35.85
2017-06-12T10:21:44.436Z,36.25
2017-06-12T10:22:56.708Z,36.25
2017-06-12T10:24:09.245Z,35.86
2017-06-12T10:25:21.220Z,35.57
2017-06-12T10:26:33.487Z,35.97
2017-06-12T10:27:45.433Z,34.9
2017-06-12T10:28:58.004Z,35.68
2017-06-12T10:30:09.683Z,35.29
2017-06-12T10:31:22.280Z,35.49
2017-06-12T10:32:34.840Z,35.78
2017-06-12T10:33:46.789Z,35.96
2017-06-12T10:34:58.763Z,36.33
2017-06-12T10:36:10.730Z,37
2017-06-12T10:37:23.283Z,37.18
2017-06-12T10:38:35.503Z,37.26
2017-06-12T10:39:48.043Z,36.93
2017-06-12T10:41:00.588Z,37.52
2017-06-12T10:42:12.813Z,37.89
2017-06-12T10:43:25.081Z,36.91
2017-06-12T10:44:37.348Z,37.01
2017-06-12T10:45:49.901Z,37.11
2017-06-12T10:47:02.165Z,38.09
2017-06-12T10:48:14.699Z,38.35
2017-06-12T10:49:27.271Z,38.84
2017-06-12T10:50:39.513Z,39.31
2017-06-12T10:51:51.801Z,40.37
2017-06-12T10:53:04.344Z,40.55
2017-06-12T10:54:16.582Z,41.01
2017-06-12T10:55:28.825Z,41.48
2017-06-12T10:56:41.090Z,41.85
2017-06-12T10:57:53.664Z,42.21
2017-06-12T10:59:05.910Z,43.09
2017-06-12T11:00:17.845Z,43.46
2017-06-12T11:01:30.095Z,44.14
2017-06-12T11:02:42.036Z,44.51
2017-06-12T11:03:54.293Z,45.09
2017-06-12T11:05:06.214Z,45.77
2017-06-12T11:06:18.435Z,45.38
2017-06-12T11:07:30.696Z,45.38
2017-06-12T11:08:43.220Z,45.77
2017-06-12T11:09:55.767Z,46.06
2017-06-12T11:11:08.291Z,45.77
2017-06-12T11:12:20.837Z,45.26
2017-06-12T11:13:33.400Z,45.65
2017-06-12T11:14:45.909Z,45.75
2017-06-12T11:15:57.545Z,45.65
2017-06-12T11:17:09.787Z,46.31
2017-06-12T11:18:22.315Z,46.33
2017-06-12T11:19:34.541Z,45.55
2017-06-12T11:20:47.111Z,44.68
2017-06-12T11:21:59.679Z,44.89
2017-06-12T11:23:11.642Z,45.57
2017-06-12T11:24:23.875Z,45.38
2017-06-12T11:25:36.445Z,44.31
2017-06-12T11:26:48.981Z,44.7
2017-06-12T11:28:01.479Z,44.79
2017-06-12T11:29:14.022Z,45.38
2017-06-12T11:30:25.969Z,45.26
2017-06-12T11:31:38.196Z,45.38
2017-06-12T11:32:50.735Z,45.07
2017-06-12T11:34:02.359Z,44.58
2017-06-12T11:35:14.609Z,45.43
2017-06-12T11:36:27.150Z,46.31
2017-06-12T11:37:39.418Z,47.08
2017-06-12T11:38:51.976Z,46.33
2017-06-12T11:40:04.546Z,44.87
2017-06-12T11:41:17.088Z,44.12
2017-06-12T11:42:29.355Z,44.89
2017-06-12T11:43:41.630Z,44.7
2017-06-12T11:44:53.880Z,43.36
2017-06-12T11:46:05.825Z,42.8
2017-06-12T11:47:18.047Z,43.29
2017-06-12T11:48:30.019Z,43.4
2017-06-12T11:49:42.579Z,42.91
2017-06-12T11:50:54.537Z,42.04
2017-06-12T11:52:06.797Z,43.01
2017-06-12T11:53:19.026Z,43.3
2017-06-12T11:54:31.614Z,42.82
2017-06-12T11:55:44.182Z,42.33
2017-06-12T11:56:56.456Z,42.82
2017-06-12T11:58:09.002Z,42.99
2017-06-12T11:59:21.272Z,43.67
2017-06-12T12:00:33.248Z,43.48
2017-06-12T12:01:45.794Z,43.85
2017-06-12T12:02:58.358Z,43.65
2017-06-12T12:04:10.889Z,44.21
2017-06-12T12:05:23.125Z,44.31
2017-06-12T12:06:35.681Z,43.95
2017-06-12T12:07:48.252Z,44.04
2017-06-12T12:09:00.786Z,43.58
2017-06-12T12:10:12.718Z,43.01
2017-06-12T12:11:25.260Z,42.33
2017-06-12T12:12:37.225Z,40.99
2017-06-12T12:13:49.453Z,39.84
2017-06-12T12:15:01.671Z,39.18
2017-06-12T12:16:14.241Z,40.06
2017-06-12T12:17:26.791Z,40.37
2017-06-12T12:18:39.039Z,40.37
2017-06-12T12:19:51.286Z,40.27
2017-06-12T12:21:03.829Z,40.09
2017-06-12T12:22:15.778Z,39.88
2017-06-12T12:23:28.324Z,40.17
2017-06-12T12:24:40.595Z,40.55
2017-06-12T12:25:52.558Z,40.73
2017-06-12T12:27:04.803Z,41.5
2017-06-12T12:28:17.354Z,41.77
2017-06-12T12:29:29.918Z,41.86
2017-06-12T12:30:42.150Z,41.46
2017-06-12T12:31:54.392Z,42.43
2017-06-12T12:33:06.933Z,42.24
2017-06-12T12:34:19.488Z,41.75
2017-06-12T12:35:32.032Z,41.26
2017-06-12T12:36:44.598Z,41.19
2017-06-12T12:37:56.926Z,41.2
2017-06-12T12:39:09.185Z,40.06
2017-06-12T12:40:21.729Z,39.86
2017-06-12T12:41:33.681Z,39.49
2017-06-12T12:42:45.923Z,39.51
2017-06-12T12:43:58.479Z,38.24
2017-06-12T12:45:10.739Z,37.87
2017-06-12T12:46:23.289Z,37.4
2017-06-12T12:47:35.559Z,38.48
2017-06-12T12:48:47.530Z,38.87
2017-06-12T12:50:00.087Z,39.16
2017-06-12T12:51:12.656Z,38.69
2017-06-12T12:52:24.618Z,38.01
2017-06-12T12:53:37.168Z,38.12
2017-06-12T12:54:49.406Z,36.96
2017-06-12T12:56:01.341Z,35.79
2017-06-12T12:57:13.577Z,36.08
2017-06-12T12:58:25.855Z,36.1
2017-06-12T12:59:38.419Z,36.3
2017-06-12T13:00:50.972Z,35.71
2017-06-12T13:02:02.919Z,35.53
2017-06-12T13:03:15.457Z,35.91
2017-06-12T13:04:28.000Z,35.97
2017-06-12T13:05:40.524Z,36.24
2017-06-12T13:06:53.069Z,36.91
2017-06-12T13:08:05.636Z,37.19
2017-06-12T13:09:17.283Z,37.55
2017-06-12T13:10:29.821Z,38.12
2017-06-12T13:11:42.385Z,38.89
2017-06-12T13:12:54.324Z,39.26
2017-06-12T13:14:06.566Z,40.11
2017-06-12T13:15:18.821Z,40.58
2017-06-12T13:16:31.066Z,41.34
2017-06-12T13:17:43.293Z,42.31
2017-06-12T13:18:55.814Z,42.78
2017-06-12T13:20:08.381Z,43.24
2017-06-12T13:21:20.617Z,43.44
2017-06-12T13:22:32.842Z,44.09
2017-06-12T13:23:45.088Z,44.58
2017-06-12T13:24:57.641Z,45.34
2017-06-12T13:26:10.184Z,45.62
2017-06-12T13:27:22.447Z,45.43
2017-06-12T13:28:34.971Z,44.75
2017-06-12T13:29:47.200Z,43.02
2017-06-12T13:30:59.459Z,42.64
2017-06-12T13:32:12.016Z,42.74
2017-06-12T13:33:23.943Z,42.74
2017-06-12T13:34:36.202Z,42.76
2017-06-12T13:35:48.759Z,42.18
2017-06-12T13:37:01.324Z,41.49
2017-06-12T13:38:13.570Z,41.3
2017-06-12T13:39:26.105Z,41.98
2017-06-12T13:40:38.379Z,42.18
2017-06-12T13:41:50.306Z,41.88
2017-06-12T13:43:02.555Z,42
2017-06-12T13:44:15.122Z,41.61
2017-06-12T13:45:27.710Z,41.9
2017-06-12T13:46:40.232Z,42.02
2017-06-12T13:47:52.788Z,42.02
2017-06-12T13:49:05.056Z,41.73
2017-06-12T13:50:17.606Z,42.43
2017-06-12T13:51:30.143Z,41.46
2017-06-12T13:52:42.390Z,40.5
2017-06-12T13:53:54.639Z,40.23
2017-06-12T13:55:06.578Z,40.41
2017-06-12T13:56:18.827Z,40.42
2017-06-12T13:57:31.373Z,40.23
2017-06-12T13:58:43.943Z,40.31
2017-06-12T13:59:55.889Z,40.41
2017-06-12T14:01:08.165Z,40.6
2017-06-12T14:02:20.411Z,41.46
2017-06-12T14:03:32.977Z,41.36
2017-06-12T14:04:45.287Z,42.02
2017-06-12T14:05:57.552Z,42.02
2017-06-12T14:07:09.845Z,42.39
2017-06-12T14:08:22.096Z,42.76
2017-06-12T14:09:34.628Z,43.02
2017-06-12T14:10:46.557Z,43.51
2017-06-12T14:11:58.806Z,43.71
2017-06-12T14:13:11.048Z,43.9
2017-06-12T14:14:23.599Z,43.88
2017-06-12T14:15:36.140Z,43.59
2017-06-12T14:16:48.662Z,44.07
2017-06-12T14:18:00.914Z,43.95
2017-06-12T14:19:12.856Z,44.24
2017-06-12T14:20:25.419Z,43.95
2017-06-12T14:21:37.970Z,43.54
2017-06-12T14:22:50.509Z,44.23
2017-06-12T14:24:03.055Z,43.82
2017-06-12T14:25:15.008Z,43.91
2017-06-12T14:26:27.547Z,44.67
2017-06-12T14:27:40.056Z,44.4
2017-06-12T14:28:52.574Z,44.3
2017-06-12T14:30:04.842Z,44.01
2017-06-12T14:31:17.388Z,44.01
2017-06-12T14:32:29.633Z,44.2
2017-06-12T14:33:41.882Z,44.23
2017-06-12T14:34:54.458Z,43.62
2017-06-12T14:36:06.701Z,43.52
2017-06-12T14:37:19.562Z,43.82
2017-06-12T14:38:31.788Z,43.5
2017-06-12T14:39:44.009Z,44.09
2017-06-12T14:40:56.206Z,43.89
2017-06-12T14:42:08.730Z,43.7
2017-06-12T14:43:20.974Z,44.47
2017-06-12T14:44:33.196Z,44.27
2017-06-12T14:45:45.420Z,44.18
2017-06-12T14:46:57.359Z,44.57
2017-06-12T14:48:09.601Z,44.76
2017-06-12T14:49:22.129Z,44.76
2017-06-12T14:50:34.669Z,43.89
2017-06-12T14:51:46.914Z,44.27
2017-06-12T14:52:59.189Z,44.54
2017-06-12T14:54:11.710Z,44.74
2017-06-12T14:55:24.236Z,44.45
2017-06-12T14:56:36.479Z,44.84
2017-06-12T14:57:49.027Z,45.22
2017-06-12T14:59:01.264Z,44.81
2017-06-12T15:00:13.785Z,45.01
2017-06-12T15:01:25.753Z,45.1
2017-06-12T15:02:38.282Z,45.66
2017-06-12T15:03:50.519Z,45.18
2017-06-12T15:05:02.452Z,45.47
2017-06-12T15:06:14.414Z,46.05
2017-06-12T15:07:26.940Z,46.12
2017-06-12T15:08:39.454Z,46.22
2017-06-12T15:09:51.963Z,46.03
2017-06-12T15:11:03.877Z,45.93
2017-06-12T15:12:15.825Z,46.22
2017-06-12T15:13:28.055Z,45.83
2017-06-12T15:14:40.595Z,45.64
2017-06-12T15:15:53.165Z,45.52
2017-06-12T15:17:05.383Z,45.81
2017-06-12T15:18:17.631Z,46.2
2017-06-12T15:19:30.170Z,46.39
2017-06-12T15:20:42.724Z,46.97
2017-06-12T15:21:55.247Z,46.85
2017-06-12T15:23:07.788Z,47.33
2017-06-12T15:24:20.329Z,47.91
2017-06-12T15:25:32.874Z,47.72
2017-06-12T15:26:45.129Z,48.11
2017-06-12T15:27:57.675Z,47.91
2017-06-12T15:29:10.219Z,47.91
2017-06-12T15:30:22.460Z,47.8
2017-06-12T15:31:35.034Z,48.08
2017-06-12T15:32:47.583Z,48.57
2017-06-12T15:34:00.116Z,48.47